Time;durP1;ratioP1;P1;durP2;ratioP2;P2;SDS_P1;SDS_P2;PMS_P1;PMS_P2;Temp;Humidity;BMP_temperature;BMP_pressure;BME280_temperature;BME280_humidity;BME280_pressure;Samples;Min_cycle;Max_cycle;Signal;HPM_P1;HPM_P2
2022/09/17 13:33:09;;;;;;;2.30;1.27;;;15.20;99.90;;;;;;5124418;27;20545;-73
2022/09/17 13:35:35;;;;;;;3.88;1.40;;;14.90;99.90;;;;;;5090758;28;20683;-73
2022/09/17 13:38:01;;;;;;;3.33;1.25;;;15.10;99.90;;;;;;5090941;28;20266;-73
2022/09/17 13:40:33;;;;;;;2.70;1.33;;;15.20;99.90;;;;;;5089856;28;20176;-75
2022/09/17 13:43:10;;;;;;;3.40;1.27;;;15.10;99.90;;;;;;5089938;28;20193;-74
2022/09/17 13:45:58;;;;;;;4.32;1.70;;;15.10;99.90;;;;;;5089521;28;20183;-73
2022/09/17 13:48:28;;;;;;;2.92;1.33;;;14.90;99.90;;;;;;5090965;28;20172;-74
2022/09/17 13:50:56;;;;;;;4.13;1.58;;;14.80;99.90;;;;;;5090309;28;20231;-75
2022/09/17 13:53:26;;;;;;;4.32;1.50;;;14.80;99.90;;;;;;5089490;28;20177;-74
2022/09/17 13:56:00;;;;;;;4.13;1.75;;;14.70;99.90;;;;;;5089218;28;20667;-74
2022/09/17 13:58:37;;;;;;;3.30;1.35;;;14.70;99.90;;;;;;5090155;28;20351;-74
2022/09/17 14:01:13;;;;;;;2.70;1.40;;;14.60;99.90;;;;;;5089298;28;20606;-74
2022/09/17 14:03:43;;;;;;;3.03;1.20;;;14.60;99.90;;;;;;5089238;28;20177;-73
2022/09/17 14:06:13;;;;;;;1.98;1.27;;;14.70;99.90;;;;;;5089120;28;20205;-73
2022/09/17 14:08:55;;;;;;;8.00;1.40;;;14.70;99.90;;;;;;5090306;28;20192;-74
2022/09/17 14:11:21;;;;;;;2.03;1.08;;;14.90;99.90;;;;;;5090512;28;20185;-73
2022/09/17 14:13:54;;;;;;;5.53;1.42;;;15.00;98.50;;;;;;5089302;28;20184;-73
2022/09/17 14:16:35;;;;;;;2.60;1.33;;;15.30;99.30;;;;;;5089525;28;20271;-73
2022/09/17 14:19:22;;;;;;;3.78;1.58;;;15.50;97.50;;;;;;5089225;28;20697;-73
2022/09/17 14:21:58;;;;;;;4.00;1.45;;;15.50;97.90;;;;;;5090375;28;20161;-73
2022/09/17 14:24:51;;;;;;;5.38;1.40;;;15.60;98.40;;;;;;5088896;28;20177;-73
2022/09/17 14:27:28;;;;;;;3.60;1.00;;;15.80;97.90;;;;;;5086590;28;20208;-73
2022/09/17 14:30:15;;;;;;;4.22;1.40;;;15.90;97.10;;;;;;5090864;28;20169;-73
2022/09/17 14:32:52;;;;;;;2.72;1.23;;;15.90;97.10;;;;;;5088654;28;20181;-73
2022/09/17 14:35:34;;;;;;;2.33;1.23;;;16.10;96.70;;;;;;5090733;28;20172;-73
2022/09/17 14:38:30;;;;;;;5.75;1.40;;;16.30;97.20;;;;;;5090117;28;20181;-73
2022/09/17 14:41:17;;;;;;;1.17;0.95;;;16.30;97.10;;;;;;5089718;28;20157;-74
2022/09/17 14:43:45;;;;;;;4.22;1.65;;;16.30;95.70;;;;;;5076718;28;20173;-74
2022/09/17 14:46:22;;;;;;;6.22;1.33;;;16.00;95.40;;;;;;5076168;28;20205;-74
2022/09/17 14:48:49;;;;;;;3.67;1.20;;;15.70;95.20;;;;;;5074915;28;20177;-73
2022/09/17 14:51:24;;;;;;;2.55;0.95;;;15.50;96.80;;;;;;5075142;28;20254;-73
2022/09/17 14:54:18;;;;;;;3.80;1.20;;;15.30;97.30;;;;;;5075743;28;20199;-74
2022/09/17 14:56:47;;;;;;;3.45;1.27;;;15.20;99.60;;;;;;5075245;28;20205;-74
2022/09/17 14:59:32;;;;;;;2.88;1.20;;;15.10;99.90;;;;;;5074787;28;20265;-74
2022/09/17 15:01:58;;;;;;;1.58;1.17;;;14.90;99.90;;;;;;5076219;28;20154;-74
2022/09/17 15:04:27;;;;;;;3.45;1.30;;;14.70;99.90;;;;;;5075823;28;20230;-74
2022/09/17 15:07:06;;;;;;;3.30;1.27;;;14.40;99.80;;;;;;5074534;28;20284;-73
2022/09/17 15:09:31;;;;;;;3.20;1.20;;;14.30;99.90;;;;;;5075395;28;20543;-73
2022/09/17 15:11:59;;;;;;;3.63;1.10;;;14.00;99.90;;;;;;5074503;28;20204;-73
2022/09/17 15:14:30;;;;;;;5.75;1.58;;;13.90;99.90;;;;;;5074394;28;20597;-73
2022/09/17 15:16:59;;;;;;;3.28;1.10;;;13.50;99.90;;;;;;5074721;28;20236;-73
2022/09/17 15:19:36;;;;;;;3.88;1.02;;;13.10;99.90;;;;;;5074695;28;20170;-73
2022/09/17 15:22:26;;;;;;;3.50;0.82;;;12.60;99.90;;;;;;5075505;28;20161;-73
2022/09/17 15:24:59;;;;;;;0.75;0.70;;;12.40;99.90;;;;;;5074400;28;20180;-73
2022/09/17 15:27:32;;;;;;;0.80;0.80;;;12.40;99.90;;;;;;5074089;28;20202;-72
2022/09/17 15:30:05;;;;;;;1.98;0.73;;;12.50;99.90;;;;;;5075030;28;20169;-72
2022/09/17 15:32:32;;;;;;;1.30;0.90;;;12.50;99.90;;;;;;5074458;28;20213;-74
2022/09/17 15:35:13;;;;;;;1.17;1.08;;;12.50;99.90;;;;;;5074393;28;20205;-73
2022/09/17 15:37:47;;;;;;;1.30;0.82;;;12.60;99.90;;;;;;5074373;28;20209;-73
2022/09/17 15:40:23;;;;;;;2.40;0.90;;;12.70;99.90;;;;;;5073902;28;20183;-73
2022/09/17 15:42:51;;;;;;;1.00;1.00;;;12.70;99.90;;;;;;5074708;28;20173;-73
2022/09/17 15:45:37;;;;;;;1.63;0.98;;;12.80;99.90;;;;;;5073816;28;20181;-73
2022/09/17 15:48:04;;;;;;;2.38;1.20;;;12.80;99.90;;;;;;5075034;28;20158;-74
2022/09/17 15:50:35;;;;;;;2.97;1.95;;;12.90;99.90;;;;;;5075774;28;20192;-73
2022/09/17 15:53:09;;;;;;;8.40;4.57;;;12.90;99.90;;;;;;5074519;28;20173;-73
2022/09/17 15:55:44;;;;;;;1.77;1.30;;;12.70;99.90;;;;;;5072624;28;20242;-73
2022/09/17 15:58:26;;;;;;;3.97;1.20;;;12.70;99.90;;;;;;5074759;28;20175;-73
2022/09/17 16:01:11;;;;;;;1.58;1.20;;;12.40;99.90;;;;;;5073505;28;20177;-74
2022/09/17 16:03:40;;;;;;;1.58;1.30;;;12.40;99.90;;;;;;5073113;28;20185;-73
2022/09/17 16:06:17;;;;;;;1.85;1.13;;;12.30;99.90;;;;;;5074806;28;20244;-73
2022/09/17 16:08:55;;;;;;;2.83;1.25;;;12.20;99.90;;;;;;5074253;28;20231;-74
2022/09/17 16:11:25;;;;;;;1.70;1.33;;;12.20;99.90;;;;;;5074105;28;20205;-74
2022/09/17 16:13:53;;;;;;;2.17;1.15;;;12.20;99.90;;;;;;5074486;28;20216;-75
2022/09/17 16:16:21;;;;;;;2.00;1.30;;;12.30;99.90;;;;;;5073687;28;20284;-75
2022/09/17 16:18:50;;;;;;;2.10;1.35;;;12.40;99.90;;;;;;5073190;28;20193;-75
2022/09/17 16:21:18;;;;;;;2.20;1.17;;;12.50;99.90;;;;;;5074579;28;20523;-74
2022/09/17 16:23:45;;;;;;;1.70;1.20;;;12.50;99.90;;;;;;5073804;28;20182;-73
2022/09/17 16:26:22;;;;;;;3.60;1.70;;;12.40;99.90;;;;;;5073604;28;20201;-73
2022/09/17 16:28:52;;;;;;;3.53;1.83;;;12.50;99.90;;;;;;5074536;28;20275;-73
2022/09/17 16:31:19;;;;;;;5.63;4.38;;;12.40;99.90;;;;;;5072831;28;20266;-74
2022/09/17 16:33:44;;;;;;;2.90;2.63;;;12.40;99.90;;;;;;5072939;28;20184;-74
2022/09/17 16:36:10;;;;;;;7.63;5.82;;;12.30;99.90;;;;;;5072811;28;20334;-74
2022/09/17 16:38:37;;;;;;;6.57;5.82;;;12.20;99.90;;;;;;5072753;28;20177;-74
2022/09/17 16:41:04;;;;;;;8.50;7.72;;;12.20;99.90;;;;;;5072685;28;20181;-74
2022/09/17 16:43:32;;;;;;;2.88;2.22;;;12.10;99.90;;;;;;5072702;28;20188;-74
2022/09/17 16:46:06;;;;;;;8.50;7.22;;;12.00;99.90;;;;;;5074125;28;20190;-73
2022/09/17 16:48:35;;;;;;;7.35;6.40;;;12.00;99.90;;;;;;5073491;28;20200;-73
2022/09/17 16:51:07;;;;;;;6.53;3.40;;;12.00;99.90;;;;;;5074564;28;20284;-73
2022/09/17 16:53:33;;;;;;;8.38;6.22;;;12.00;99.90;;;;;;5072730;28;20253;-73
2022/09/17 16:55:59;;;;;;;128.02;85.20;;;12.00;99.90;;;;;;5073272;28;20284;-73
2022/09/17 16:58:24;;;;;;;22.70;16.42;;;12.00;99.90;;;;;;5073651;28;20209;-73
2022/09/17 17:00:50;;;;;;;12.18;7.40;;;12.00;99.90;;;;;;5072428;28;20547;-73
2022/09/17 17:03:16;;;;;;;22.13;16.60;;;12.00;99.90;;;;;;5073298;28;20165;-74
2022/09/17 17:05:42;;;;;;;10.82;7.85;;;12.00;99.90;;;;;;5072001;28;20188;-74
2022/09/17 17:08:09;;;;;;;40.70;27.17;;;12.10;99.90;;;;;;5072689;28;20188;-73
2022/09/17 17:10:36;;;;;;;29.42;20.65;;;12.00;99.90;;;;;;5072302;28;20165;-73
2022/09/17 17:13:03;;;;;;;10.18;6.75;;;12.10;99.90;;;;;;5072310;28;20198;-73
2022/09/17 17:15:29;;;;;;;17.27;12.73;;;12.00;99.90;;;;;;5073387;28;20192;-73
2022/09/17 17:17:55;;;;;;;11.98;9.23;;;12.00;99.90;;;;;;5073627;28;20306;-73
2022/09/17 17:20:20;;;;;;;14.38;12.20;;;12.00;99.90;;;;;;5073954;28;20249;-74
2022/09/17 17:22:46;;;;;;;7.63;3.13;;;12.00;99.90;;;;;;5072458;28;20264;-74
2022/09/17 17:25:13;;;;;;;5.40;2.70;;;12.00;99.90;;;;;;5073976;28;20180;-74
2022/09/17 17:27:39;;;;;;;2.92;1.73;;;12.10;99.90;;;;;;5072093;28;20200;-74
2022/09/17 17:30:07;;;;;;;1.08;1.08;;;12.00;99.90;;;;;;5072905;28;20200;-74
2022/09/17 17:32:35;;;;;;;2.97;2.17;;;11.90;99.90;;;;;;5071819;28;20610;-74
2022/09/17 17:35:01;;;;;;;2.17;1.50;;;11.70;99.90;;;;;;5072705;28;20223;-73
2022/09/17 17:37:26;;;;;;;9.25;6.03;;;11.40;99.90;;;;;;5072362;28;20197;-74
2022/09/17 17:39:53;;;;;;;4.55;2.22;;;11.30;99.90;;;;;;5073545;28;20173;-74
2022/09/17 17:42:19;;;;;;;5.72;2.70;;;11.20;99.90;;;;;;5071798;28;20174;-73
2022/09/17 17:44:46;;;;;;;8.48;6.00;;;11.10;99.90;;;;;;5073229;28;20170;-73
2022/09/17 17:47:12;;;;;;;11.25;7.75;;;11.10;99.90;;;;;;5073412;28;20278;-74
2022/09/17 17:49:37;;;;;;;27.00;24.40;;;11.00;99.90;;;;;;5073106;28;20173;-74
2022/09/17 17:52:03;;;;;;;7.32;6.70;;;10.90;99.90;;;;;;5073409;28;20201;-74
2022/09/17 17:54:28;;;;;;;3.20;2.67;;;10.80;99.90;;;;;;5072454;28;20169;-74
2022/09/17 17:56:57;;;;;;;3.00;2.20;;;10.80;99.90;;;;;;5073630;28;20186;-74
2022/09/17 17:59:23;;;;;;;3.03;1.60;;;10.80;99.90;;;;;;5071957;28;20190;-73
2022/09/17 18:01:48;;;;;;;1.15;1.05;;;10.80;99.90;;;;;;5072681;28;20215;-73
2022/09/17 18:04:14;;;;;;;1.67;1.20;;;10.80;99.90;;;;;;5071811;28;20178;-73
2022/09/17 18:06:39;;;;;;;3.83;3.50;;;10.90;99.90;;;;;;5073002;28;20201;-72
2022/09/17 18:09:05;;;;;;;2.08;1.30;;;10.90;99.90;;;;;;5071785;28;20193;-72
2022/09/17 18:11:32;;;;;;;1.40;1.30;;;11.00;99.90;;;;;;5072018;28;20204;-72
2022/09/17 18:14:00;;;;;;;3.45;1.50;;;11.10;99.90;;;;;;5072022;28;20200;-73
2022/09/17 18:16:27;;;;;;;3.13;2.30;;;11.10;99.90;;;;;;5073511;28;20272;-75
2022/09/17 18:18:58;;;;;;;3.00;2.70;;;11.10;99.90;;;;;;5074468;28;20196;-74
2022/09/17 18:21:24;;;;;;;3.75;1.65;;;11.10;99.90;;;;;;5075561;28;20192;-78
2022/09/17 18:23:50;;;;;;;2.15;1.50;;;11.00;99.90;;;;;;5075885;28;20178;-73
2022/09/17 18:26:19;;;;;;;3.00;1.60;;;10.90;99.90;;;;;;5075473;28;20197;-73
2022/09/17 18:28:45;;;;;;;3.17;1.38;;;10.70;99.90;;;;;;5076560;28;20201;-73
2022/09/17 18:31:19;;;;;;;2.42;1.23;;;10.50;99.90;;;;;;5075308;28;20213;-73
2022/09/17 18:33:45;;;;;;;1.67;1.30;;;10.40;99.90;;;;;;5075461;28;20271;-73
2022/09/17 18:36:11;;;;;;;1.52;1.42;;;10.30;99.90;;;;;;5074976;28;20220;-73
2022/09/17 18:38:39;;;;;;;2.45;1.40;;;10.20;99.90;;;;;;5075243;28;20651;-73
2022/09/17 18:41:08;;;;;;;2.47;1.17;;;10.10;99.90;;;;;;5076268;28;20225;-73
2022/09/17 18:43:33;;;;;;;3.45;1.25;;;10.00;99.90;;;;;;5077107;28;20208;-73
2022/09/17 18:45:59;;;;;;;2.53;1.30;;;9.90;99.90;;;;;;5076765;28;20229;-73
2022/09/17 18:48:26;;;;;;;1.75;1.30;;;9.90;99.90;;;;;;5076233;28;20158;-72
2022/09/17 18:51:00;;;;;;;4.97;1.45;;;9.90;99.90;;;;;;5076032;28;20291;-72
2022/09/17 18:53:26;;;;;;;3.90;1.15;;;9.80;99.90;;;;;;5074890;28;20316;-72
2022/09/17 18:55:54;;;;;;;2.97;1.15;;;9.90;99.90;;;;;;5075573;28;20194;-72
2022/09/17 18:58:20;;;;;;;5.13;1.30;;;9.80;99.90;;;;;;5074997;28;20181;-72
2022/09/17 19:00:46;;;;;;;1.48;1.00;;;9.80;99.90;;;;;;5076302;28;20181;-72
2022/09/17 19:03:11;;;;;;;3.08;1.10;;;9.80;99.90;;;;;;5075817;28;20181;-72
2022/09/17 19:05:37;;;;;;;1.80;1.02;;;9.80;99.90;;;;;;5076141;28;20169;-73
2022/09/17 19:08:02;;;;;;;2.60;1.17;;;9.80;99.90;;;;;;5075458;28;20181;-74
2022/09/17 19:10:30;;;;;;;2.05;1.00;;;9.70;99.90;;;;;;5074435;28;20592;-74
2022/09/17 19:12:56;;;;;;;1.90;0.85;;;9.80;99.90;;;;;;5075528;28;20177;-74
2022/09/17 19:15:23;;;;;;;4.05;1.20;;;9.70;99.90;;;;;;5075020;28;20215;-74
2022/09/17 19:17:48;;;;;;;3.47;1.08;;;9.80;99.90;;;;;;5074717;28;20204;-74
2022/09/17 19:20:14;;;;;;;1.63;1.00;;;9.70;99.90;;;;;;5075547;28;20165;-74
2022/09/17 19:22:40;;;;;;;4.50;1.13;;;9.70;99.90;;;;;;5074367;28;20190;-74
2022/09/17 19:25:06;;;;;;;1.90;1.10;;;9.70;99.90;;;;;;5075508;28;20177;-74
2022/09/17 19:27:31;;;;;;;2.53;1.10;;;9.60;99.90;;;;;;5074141;28;20205;-74
2022/09/17 19:29:59;;;;;;;1.73;0.90;;;9.50;99.90;;;;;;5075261;28;20260;-74
2022/09/17 19:32:27;;;;;;;1.67;1.02;;;9.50;99.90;;;;;;5074243;28;20263;-74
2022/09/17 19:34:52;;;;;;;2.15;0.93;;;9.50;99.90;;;;;;5075340;28;20169;-74
2022/09/17 19:37:18;;;;;;;2.85;1.05;;;9.50;99.90;;;;;;5074333;28;20198;-73
2022/09/17 19:39:44;;;;;;;2.70;1.02;;;9.40;99.90;;;;;;5073980;28;20177;-73
2022/09/17 19:42:20;;;;;;;2.53;1.25;;;9.40;99.90;;;;;;5075262;28;20190;-73
2022/09/17 19:45:27;;;;;;;2.38;1.08;;;9.40;99.90;;;;;;5074055;28;20201;-73
2022/09/17 19:47:55;;;;;;;4.20;1.50;;;9.40;99.90;;;;;;5073785;28;20170;-73
2022/09/17 19:50:21;;;;;;;4.85;1.23;;;9.40;99.90;;;;;;5074064;28;20208;-73
2022/09/17 19:52:47;;;;;;;3.60;1.10;;;9.40;99.90;;;;;;5073595;28;20740;-73
2022/09/17 19:55:13;;;;;;;2.65;1.05;;;9.50;99.90;;;;;;5075205;28;20261;-73
2022/09/17 19:57:39;;;;;;;2.15;1.13;;;9.40;99.90;;;;;;5073857;28;20223;-73
2022/09/17 20:00:41;;;;;;;3.63;1.10;;;9.40;99.90;;;;;;5073595;28;20178;-73
2022/09/17 20:03:12;;;;;;;4.65;1.30;;;9.30;99.90;;;;;;5074905;28;20719;-73
2022/09/17 20:08:59;;;;;;;4.00;1.15;;;9.30;99.90;;;;;;5074951;28;20150;-73
2022/09/17 20:11:25;;;;;;;5.20;1.40;;;9.20;99.90;;;;;;5073563;28;20201;-73
2022/09/17 20:14:02;;;;;;;2.88;1.27;;;9.10;99.90;;;;;;5073208;28;20268;-73
2022/09/17 20:16:28;;;;;;;1.90;0.90;;;9.10;99.90;;;;;;5073981;28;20190;-73
2022/09/17 20:18:54;;;;;;;2.90;1.10;;;9.10;99.90;;;;;;5073388;28;20173;-74
2022/09/17 20:21:28;;;;;;;11.35;6.63;;;9.10;99.90;;;;;;5073044;28;20698;-74
2022/09/17 20:23:54;;;;;;;4.20;2.00;;;9.00;99.90;;;;;;5073120;28;20234;-74
2022/09/17 20:26:21;;;;;;;5.32;3.15;;;9.00;99.90;;;;;;5073299;28;20194;-74
2022/09/17 20:28:48;;;;;;;2.85;1.70;;;9.10;99.90;;;;;;5072957;28;20272;-74
2022/09/17 20:31:18;;;;;;;4.53;1.90;;;9.10;99.90;;;;;;5073087;28;20209;-74
2022/09/17 20:33:44;;;;;;;8.20;5.30;;;9.10;99.90;;;;;;5072865;28;20197;-74
2022/09/17 20:36:15;;;;;;;6.97;2.30;;;9.10;99.90;;;;;;5072740;28;20202;-74
2022/09/17 20:38:41;;;;;;;11.38;2.70;;;9.20;99.90;;;;;;5073612;28;20176;-74
2022/09/17 20:41:09;;;;;;;5.45;2.90;;;9.20;99.90;;;;;;5072141;28;20671;-74
2022/09/17 20:43:36;;;;;;;4.82;3.22;;;9.20;99.90;;;;;;5072556;28;20267;-74
2022/09/17 20:46:03;;;;;;;12.90;5.63;;;9.30;99.90;;;;;;5072581;28;20201;-74
2022/09/17 20:48:30;;;;;;;8.35;3.90;;;9.30;99.90;;;;;;5072469;28;20185;-74
2022/09/17 20:50:57;;;;;;;10.95;4.93;;;9.40;99.90;;;;;;5073557;28;20239;-74
2022/09/17 20:54:00;;;;;;;11.88;6.20;;;9.40;99.90;;;;;;5073894;28;20196;-74
2022/09/17 20:56:29;;;;;;;14.98;8.77;;;9.40;99.90;;;;;;5072484;28;20193;-74
2022/09/17 20:59:07;;;;;;;4.60;2.78;;;9.50;99.90;;;;;;5072475;28;20252;-73
2022/09/17 21:01:52;;;;;;;5.32;2.20;;;9.50;99.90;;;;;;5073337;28;20169;-73
2022/09/17 21:04:25;;;;;;;5.03;2.45;;;9.50;99.90;;;;;;5073505;28;20169;-73
2022/09/17 21:06:52;;;;;;;14.98;11.32;;;9.60;99.90;;;;;;5072814;28;20266;-73
2022/09/17 21:09:17;;;;;;;15.98;9.15;;;9.70;99.90;;;;;;5072324;28;20173;-73
2022/09/17 21:11:45;;;;;;;5.38;3.40;;;9.70;99.90;;;;;;5073470;28;20201;-73
2022/09/17 21:14:14;;;;;;;11.43;5.80;;;9.80;99.90;;;;;;5072503;28;20178;-73
2022/09/17 21:16:40;;;;;;;13.35;8.00;;;9.90;99.90;;;;;;5073042;28;20201;-73
2022/09/17 21:19:07;;;;;;;20.10;15.20;;;9.90;99.90;;;;;;5072302;28;20248;-73
2022/09/17 21:21:33;;;;;;;12.45;9.98;;;10.00;99.90;;;;;;5073693;28;20668;-73
2022/09/17 21:24:04;;;;;;;4.90;2.35;;;10.00;99.90;;;;;;5072986;28;20177;-73
2022/09/17 21:26:30;;;;;;;6.10;2.20;;;10.00;99.90;;;;;;5072072;28;20283;-73
2022/09/17 21:28:56;;;;;;;4.40;1.80;;;9.90;99.90;;;;;;5072198;28;20241;-73
2022/09/17 21:31:25;;;;;;;4.85;1.83;;;10.00;99.90;;;;;;5072491;28;20359;-73
2022/09/17 21:33:59;;;;;;;5.50;2.05;;;9.90;99.90;;;;;;5073673;28;20196;-73
2022/09/17 21:36:27;;;;;;;7.45;1.75;;;9.80;99.90;;;;;;5072251;28;20197;-73
2022/09/17 21:38:58;;;;;;;2.33;1.38;;;9.80;99.90;;;;;;5071984;28;20176;-73
2022/09/17 21:41:25;;;;;;;7.68;1.70;;;9.80;99.90;;;;;;5072995;28;20199;-73
2022/09/17 21:43:51;;;;;;;4.03;1.50;;;9.90;99.90;;;;;;5072369;28;20636;-73
2022/09/17 21:46:26;;;;;;;5.80;1.65;;;9.90;99.90;;;;;;5071898;28;20288;-73
2022/09/17 21:48:54;;;;;;;2.63;1.45;;;9.80;99.90;;;;;;5071951;28;20191;-73
2022/09/17 21:51:29;;;;;;;5.15;1.52;;;9.80;99.90;;;;;;5073373;28;20207;-73
2022/09/17 21:54:15;;;;;;;4.78;1.40;;;9.70;99.90;;;;;;5076459;28;20167;-73
2022/09/17 21:56:44;;;;;;;4.65;1.45;;;9.60;99.90;;;;;;5075879;28;20197;-73
2022/09/17 21:59:12;;;;;;;6.30;1.75;;;9.50;99.90;;;;;;5075832;28;20185;-73
2022/09/17 22:01:45;;;;;;;5.15;1.33;;;9.50;99.90;;;;;;5076995;28;20640;-73
2022/09/17 22:04:14;;;;;;;4.30;1.38;;;9.50;99.90;;;;;;5077351;28;20162;-73
2022/09/17 22:06:40;;;;;;;5.40;1.45;;;9.50;99.90;;;;;;5076024;28;20250;-73
2022/09/17 22:09:11;;;;;;;3.67;1.50;;;9.40;99.90;;;;;;5076832;28;20588;-73
2022/09/17 22:11:37;;;;;;;5.00;1.63;;;9.40;99.90;;;;;;5075608;28;20683;-73
2022/09/17 22:14:07;;;;;;;5.72;1.67;;;9.50;99.90;;;;;;5077066;28;20544;-73
2022/09/17 22:16:35;;;;;;;5.03;1.67;;;9.50;99.90;;;;;;5076082;28;20201;-73
2022/09/17 22:19:02;;;;;;;3.33;1.55;;;9.50;99.90;;;;;;5076902;28;20584;-73
2022/09/17 22:21:30;;;;;;;6.65;1.90;;;9.60;99.90;;;;;;5075909;28;20181;-73
2022/09/17 22:23:59;;;;;;;6.25;1.63;;;9.70;99.90;;;;;;5075348;28;20235;-73
2022/09/17 22:26:29;;;;;;;5.30;1.67;;;9.70;99.90;;;;;;5075292;28;20201;-73
2022/09/17 22:28:59;;;;;;;5.25;1.77;;;9.70;99.90;;;;;;5076828;28;20509;-73
2022/09/17 22:31:24;;;;;;;7.00;1.90;;;9.70;99.90;;;;;;5075231;28;20213;-73
2022/09/17 22:33:50;;;;;;;5.15;1.40;;;9.60;99.90;;;;;;5075186;28;20188;-73
2022/09/17 22:36:21;;;;;;;8.68;2.15;;;9.70;99.90;;;;;;5076229;28;20256;-73
2022/09/17 22:38:49;;;;;;;4.97;1.80;;;9.60;99.90;;;;;;5075180;28;20174;-73
2022/09/17 22:41:20;;;;;;;7.65;2.08;;;9.50;99.90;;;;;;5076586;28;20174;-73
2022/09/17 22:43:59;;;;;;;5.47;1.80;;;9.50;99.90;;;;;;5074994;28;20173;-73
2022/09/17 22:46:32;;;;;;;6.30;1.58;;;9.40;99.90;;;;;;5075226;28;20209;-73
2022/09/17 22:48:59;;;;;;;12.00;2.13;;;9.30;99.90;;;;;;5076201;28;20213;-73
2022/09/17 22:51:26;;;;;;;3.45;1.58;;;9.30;99.90;;;;;;5076044;28;20200;-73
2022/09/17 22:53:59;;;;;;;6.05;1.60;;;9.20;99.90;;;;;;5074900;28;20203;-73
2022/09/17 22:56:26;;;;;;;3.22;1.30;;;9.10;99.90;;;;;;5075142;28;20197;-73
2022/09/17 22:58:52;;;;;;;5.63;1.48;;;9.10;99.90;;;;;;5074789;28;20207;-73
2022/09/17 23:01:36;;;;;;;7.10;1.45;;;9.10;99.90;;;;;;5074665;28;20189;-74
2022/09/17 23:04:02;;;;;;;4.68;1.52;;;9.20;99.90;;;;;;5074278;28;20173;-74
2022/09/17 23:06:30;;;;;;;5.13;1.73;;;9.30;99.90;;;;;;5075757;28;20562;-74
2022/09/17 23:08:56;;;;;;;6.55;1.63;;;9.30;99.90;;;;;;5075892;28;20243;-73
2022/09/17 23:11:29;;;;;;;3.83;1.40;;;9.30;99.90;;;;;;5074553;28;20205;-73
2022/09/17 23:13:58;;;;;;;10.52;1.63;;;9.40;99.90;;;;;;5076114;28;20253;-73
2022/09/17 23:16:24;;;;;;;6.40;2.00;;;9.40;99.90;;;;;;5074364;28;20200;-73
2022/09/17 23:18:50;;;;;;;4.95;1.73;;;9.50;99.90;;;;;;5075858;28;20173;-73
2022/09/17 23:21:17;;;;;;;5.32;1.98;;;9.40;99.90;;;;;;5074334;28;20174;-73
2022/09/17 23:23:45;;;;;;;7.22;1.80;;;9.40;99.90;;;;;;5075776;28;20182;-73
2022/09/17 23:26:14;;;;;;;8.75;2.13;;;9.40;99.90;;;;;;5075050;28;20209;-73
2022/09/17 23:28:40;;;;;;;4.93;1.77;;;9.40;99.90;;;;;;5074694;28;20185;-73
2022/09/17 23:31:07;;;;;;;6.90;1.90;;;9.30;99.90;;;;;;5074044;28;20585;-73
2022/09/17 23:36:50;;;;;;;11.90;5.55;;;9.30;99.90;;;;;;5075620;28;20292;-73
2022/09/17 23:39:15;;;;;;;16.77;9.32;;;9.40;99.90;;;;;;5074351;28;20227;-73
2022/09/17 23:41:43;;;;;;;13.57;2.67;;;9.50;99.90;;;;;;5074031;28;20178;-73
2022/09/17 23:44:13;;;;;;;7.28;2.15;;;9.50;99.90;;;;;;5075432;28;20189;-73
2022/09/17 23:46:38;;;;;;;9.55;2.83;;;9.50;99.90;;;;;;5074669;28;20203;-73
2022/09/17 23:49:04;;;;;;;11.60;2.50;;;9.50;99.90;;;;;;5075305;28;20185;-73
2022/09/17 23:51:34;;;;;;;10.40;2.53;;;9.60;99.90;;;;;;5073676;28;20201;-73
2022/09/17 23:54:00;;;;;;;9.95;2.50;;;9.60;99.90;;;;;;5074942;28;20182;-73
2022/09/17 23:56:27;;;;;;;7.95;2.47;;;9.60;99.90;;;;;;5074843;28;20691;-73
2022/09/17 23:58:54;;;;;;;8.88;3.13;;;9.60;99.90;;;;;;5074518;28;20255;-73
